sensor_id;sensor_type;location;lat;lon;timestamp;pressure;altitude;pressure_sealevel;temperature;humidity
45275;BME280;31019;43.780;25.948;2023-03-01T00:02:21;102190.00;;;4.36;100.00
45275;BME280;31019;43.780;25.948;2023-03-01T00:04:47;102188.25;;;4.47;100.00
45275;BME280;31019;43.780;25.948;2023-03-01T00:07:16;102185.44;;;4.39;100.00
45275;BME280;31019;43.780;25.948;2023-03-01T00:09:42;102181.28;;;4.36;100.00
45275;BME280;31019;43.780;25.948;2023-03-01T00:12:11;102182.38;;;4.33;100.00
45275;BME280;31019;43.780;25.948;2023-03-01T00:14:38;102176.28;;;4.33;100.00
45275;BME280;31019;43.780;25.948;2023-03-01T00:17:05;102176.66;;;4.28;100.00
45275;BME280;31019;43.780;25.948;2023-03-01T00:19:31;102158.75;;;4.43;100.00
45275;BME280;31019;43.780;25.948;2023-03-01T00:21:58;102160.03;;;4.28;100.00
45275;BME280;31019;43.780;25.948;2023-03-01T00:24:27;102154.25;;;4.34;100.00
45275;BME280;31019;43.780;25.948;2023-03-01T00:26:54;102158.66;;;4.24;100.00
45275;BME280;31019;43.780;25.948;2023-03-01T00:29:22;102153.69;;;4.30;100.00
45275;BME280;31019;43.780;25.948;2023-03-01T00:31:48;102155.16;;;4.23;100.00
45275;BME280;31019;43.780;25.948;2023-03-01T00:34:16;102160.09;;;4.17;100.00
45275;BME280;31019;43.780;25.948;2023-03-01T00:36:42;102154.59;;;4.20;100.00
45275;BME280;31019;43.780;25.948;2023-03-01T00:39:11;102151.66;;;4.13;100.00
45275;BME280;31019;43.780;25.948;2023-03-01T00:41:40;102156.84;;;4.24;100.00
45275;BME280;31019;43.780;25.948;2023-03-01T00:44:07;102160.88;;;4.07;100.00
45275;BME280;31019;43.780;25.948;2023-03-01T00:46:33;102158.72;;;4.12;100.00
45275;BME280;31019;43.780;25.948;2023-03-01T00:49:00;102150.41;;;4.17;100.00
45275;BME280;31019;43.780;25.948;2023-03-01T00:51:28;102149.59;;;4.17;100.00
45275;BME280;31019;43.780;25.948;2023-03-01T00:53:56;102148.31;;;4.11;100.00
45275;BME280;31019;43.780;25.948;2023-03-01T00:56:23;102148.31;;;4.11;100.00
45275;BME280;31019;43.780;25.948;2023-03-01T00:58:51;102153.97;;;4.06;100.00
45275;BME280;31019;43.780;25.948;2023-03-01T01:01:20;102152.41;;;4.04;100.00
45275;BME280;31019;43.780;25.948;2023-03-01T01:03:48;102136.63;;;4.04;100.00
45275;BME280;31019;43.780;25.948;2023-03-01T01:06:20;102132.25;;;4.14;100.00
45275;BME280;31019;43.780;25.948;2023-03-01T01:08:48;102132.72;;;3.98;100.00
45275;BME280;31019;43.780;25.948;2023-03-01T01:11:15;102121.38;;;4.19;100.00
45275;BME280;31019;43.780;25.948;2023-03-01T01:13:43;102121.56;;;4.06;100.00
45275;BME280;31019;43.780;25.948;2023-03-01T01:16:13;102124.84;;;3.98;100.00
45275;BME280;31019;43.780;25.948;2023-03-01T01:18:40;102119.72;;;3.97;100.00
45275;BME280;31019;43.780;25.948;2023-03-01T01:21:08;102120.59;;;4.07;100.00
45275;BME280;31019;43.780;25.948;2023-03-01T01:23:36;102112.84;;;4.57;100.00
45275;BME280;31019;43.780;25.948;2023-03-01T01:26:05;102105.63;;;4.28;100.00
45275;BME280;31019;43.780;25.948;2023-03-01T01:28:31;102103.34;;;4.45;100.00
45275;BME280;31019;43.780;25.948;2023-03-01T01:30:58;102110.81;;;4.09;100.00
45275;BME280;31019;43.780;25.948;2023-03-01T01:33:26;102098.63;;;4.69;100.00
45275;BME280;31019;43.780;25.948;2023-03-01T01:35:53;102094.25;;;4.18;100.00
45275;BME280;31019;43.780;25.948;2023-03-01T01:38:20;102086.47;;;4.17;100.00
45275;BME280;31019;43.780;25.948;2023-03-01T01:40:48;102088.34;;;4.35;100.00
45275;BME280;31019;43.780;25.948;2023-03-01T01:43:21;102074.13;;;4.78;100.00
45275;BME280;31019;43.780;25.948;2023-03-01T01:45:55;102085.75;;;4.76;100.00
45275;BME280;31019;43.780;25.948;2023-03-01T01:48:23;102081.66;;;4.22;100.00
45275;BME280;31019;43.780;25.948;2023-03-01T01:51:03;102072.44;;;4.06;100.00
45275;BME280;31019;43.780;25.948;2023-03-01T01:53:30;102080.03;;;4.00;100.00
45275;BME280;31019;43.780;25.948;2023-03-01T01:55:58;102080.34;;;4.06;100.00
45275;BME280;31019;43.780;25.948;2023-03-01T01:58:29;102072.53;;;4.26;100.00
45275;BME280;31019;43.780;25.948;2023-03-01T02:00:56;102073.47;;;4.15;100.00
45275;BME280;31019;43.780;25.948;2023-03-01T02:03:26;102073.50;;;3.94;100.00
45275;BME280;31019;43.780;25.948;2023-03-01T02:05:59;102071.13;;;3.91;100.00
45275;BME280;31019;43.780;25.948;2023-03-01T02:08:33;102061.22;;;3.83;100.00
45275;BME280;31019;43.780;25.948;2023-03-01T02:11:01;102059.16;;;4.79;100.00
45275;BME280;31019;43.780;25.948;2023-03-01T02:13:30;102054.78;;;3.87;100.00
45275;BME280;31019;43.780;25.948;2023-03-01T02:15:57;102056.22;;;4.01;100.00
45275;BME280;31019;43.780;25.948;2023-03-01T02:18:24;102052.75;;;4.01;100.00
45275;BME280;31019;43.780;25.948;2023-03-01T02:21:01;102048.16;;;4.54;100.00
45275;BME280;31019;43.780;25.948;2023-03-01T02:23:32;102049.69;;;3.96;100.00
45275;BME280;31019;43.780;25.948;2023-03-01T02:26:03;102048.41;;;4.51;100.00
45275;BME280;31019;43.780;25.948;2023-03-01T02:28:35;102041.69;;;4.78;100.00
45275;BME280;31019;43.780;25.948;2023-03-01T02:31:05;102042.19;;;4.52;100.00
45275;BME280;31019;43.780;25.948;2023-03-01T02:33:50;102050.34;;;3.88;100.00
45275;BME280;31019;43.780;25.948;2023-03-01T02:36:19;102044.91;;;4.10;100.00
45275;BME280;31019;43.780;25.948;2023-03-01T02:38:46;102059.00;;;4.00;100.00
45275;BME280;31019;43.780;25.948;2023-03-01T02:41:16;102052.34;;;4.05;100.00
45275;BME280;31019;43.780;25.948;2023-03-01T02:43:46;102056.00;;;4.14;100.00
45275;BME280;31019;43.780;25.948;2023-03-01T02:46:15;102068.47;;;4.12;100.00
45275;BME280;31019;43.780;25.948;2023-03-01T02:48:44;102066.22;;;4.07;100.00
45275;BME280;31019;43.780;25.948;2023-03-01T02:51:24;102065.59;;;3.94;100.00
45275;BME280;31019;43.780;25.948;2023-03-01T02:54:01;102061.22;;;4.04;100.00
45275;BME280;31019;43.780;25.948;2023-03-01T02:56:32;102067.97;;;3.76;100.00
45275;BME280;31019;43.780;25.948;2023-03-01T02:59:00;102071.28;;;3.99;100.00
45275;BME280;31019;43.780;25.948;2023-03-01T03:01:28;102074.38;;;3.83;100.00
45275;BME280;31019;43.780;25.948;2023-03-01T03:04:02;102067.22;;;3.85;100.00
45275;BME280;31019;43.780;25.948;2023-03-01T03:06:29;102062.16;;;3.94;100.00
45275;BME280;31019;43.780;25.948;2023-03-01T03:08:56;102067.22;;;3.85;100.00
45275;BME280;31019;43.780;25.948;2023-03-01T03:11:23;102069.84;;;3.85;100.00
45275;BME280;31019;43.780;25.948;2023-03-01T03:13:50;102064.88;;;3.92;100.00
45275;BME280;31019;43.780;25.948;2023-03-01T03:16:18;102063.75;;;3.85;100.00
45275;BME280;31019;43.780;25.948;2023-03-01T03:18:45;102067.72;;;3.79;100.00
45275;BME280;31019;43.780;25.948;2023-03-01T03:21:13;102071.50;;;3.86;100.00
45275;BME280;31019;43.780;25.948;2023-03-01T03:23:40;102073.94;;;3.78;100.00
45275;BME280;31019;43.780;25.948;2023-03-01T03:26:06;102065.47;;;3.75;100.00
45275;BME280;31019;43.780;25.948;2023-03-01T03:28:34;102065.28;;;3.87;100.00
45275;BME280;31019;43.780;25.948;2023-03-01T03:31:01;102064.31;;;3.88;100.00
45275;BME280;31019;43.780;25.948;2023-03-01T03:33:30;102054.03;;;4.37;100.00
45275;BME280;31019;43.780;25.948;2023-03-01T03:35:57;102040.66;;;3.88;100.00
45275;BME280;31019;43.780;25.948;2023-03-01T03:38:24;102043.41;;;3.87;100.00
45275;BME280;31019;43.780;25.948;2023-03-01T03:40:52;102044.06;;;3.79;100.00
45275;BME280;31019;43.780;25.948;2023-03-01T03:43:26;102043.22;;;4.00;100.00
45275;BME280;31019;43.780;25.948;2023-03-01T03:45:53;102054.94;;;3.96;100.00
45275;BME280;31019;43.780;25.948;2023-03-01T03:48:22;102048.13;;;4.14;100.00
45275;BME280;31019;43.780;25.948;2023-03-01T03:50:52;102051.03;;;3.90;100.00
45275;BME280;31019;43.780;25.948;2023-03-01T03:53:20;102057.25;;;3.89;100.00
45275;BME280;31019;43.780;25.948;2023-03-01T03:55:47;102050.72;;;3.83;100.00
45275;BME280;31019;43.780;25.948;2023-03-01T03:58:15;102046.16;;;4.06;100.00
45275;BME280;31019;43.780;25.948;2023-03-01T04:00:46;102057.53;;;4.17;100.00
45275;BME280;31019;43.780;25.948;2023-03-01T04:03:14;102059.97;;;4.08;100.00
45275;BME280;31019;43.780;25.948;2023-03-01T04:05:41;102062.31;;;4.02;100.00
45275;BME280;31019;43.780;25.948;2023-03-01T04:08:10;102057.84;;;4.23;100.00
45275;BME280;31019;43.780;25.948;2023-03-01T04:10:38;102060.69;;;4.10;100.00
45275;BME280;31019;43.780;25.948;2023-03-01T04:13:07;102059.16;;;4.08;100.00
45275;BME280;31019;43.780;25.948;2023-03-01T04:15:34;102060.66;;;4.01;100.00
45275;BME280;31019;43.780;25.948;2023-03-01T04:18:01;102056.97;;;4.13;100.00
45275;BME280;31019;43.780;25.948;2023-03-01T04:20:29;102069.56;;;4.09;100.00
45275;BME280;31019;43.780;25.948;2023-03-01T04:22:59;102072.25;;;3.98;100.00
45275;BME280;31019;43.780;25.948;2023-03-01T04:25:37;102072.03;;;4.11;100.00
45275;BME280;31019;43.780;25.948;2023-03-01T04:28:04;102069.94;;;4.05;100.00
45275;BME280;31019;43.780;25.948;2023-03-01T04:30:31;102078.47;;;3.97;100.00
45275;BME280;31019;43.780;25.948;2023-03-01T04:33:01;102071.53;;;3.96;100.00
45275;BME280;31019;43.780;25.948;2023-03-01T04:35:29;102067.81;;;3.99;100.00
45275;BME280;31019;43.780;25.948;2023-03-01T04:37:56;102071.16;;;4.01;100.00
45275;BME280;31019;43.780;25.948;2023-03-01T04:40:22;102070.72;;;3.96;100.00
45275;BME280;31019;43.780;25.948;2023-03-01T04:42:50;102068.53;;;4.01;100.00
45275;BME280;31019;43.780;25.948;2023-03-01T04:45:17;102070.59;;;3.97;100.00
45275;BME280;31019;43.780;25.948;2023-03-01T04:47:45;102068.84;;;4.07;100.00
45275;BME280;31019;43.780;25.948;2023-03-01T04:50:15;102063.38;;;4.20;100.00
45275;BME280;31019;43.780;25.948;2023-03-01T04:52:42;102063.91;;;3.93;100.00
45275;BME280;31019;43.780;25.948;2023-03-01T04:55:10;102068.59;;;4.10;100.00
45275;BME280;31019;43.780;25.948;2023-03-01T04:57:37;102070.72;;;3.96;100.00
45275;BME280;31019;43.780;25.948;2023-03-01T05:00:07;102071.16;;;4.01;100.00
45275;BME280;31019;43.780;25.948;2023-03-01T05:02:46;102069.66;;;4.08;100.00
45275;BME280;31019;43.780;25.948;2023-03-01T05:05:19;102070.47;;;3.99;100.00
45275;BME280;31019;43.780;25.948;2023-03-01T05:07:47;102076.16;;;4.04;100.00
45275;BME280;31019;43.780;25.948;2023-03-01T05:10:14;102073.50;;;3.94;100.00
45275;BME280;31019;43.780;25.948;2023-03-01T05:12:40;102079.63;;;3.83;100.00
45275;BME280;31019;43.780;25.948;2023-03-01T05:15:09;102062.47;;;3.79;100.00
45275;BME280;31019;43.780;25.948;2023-03-01T05:17:36;102065.16;;;3.89;100.00
45275;BME280;31019;43.780;25.948;2023-03-01T05:20:03;102065.72;;;3.93;100.00
45275;BME280;31019;43.780;25.948;2023-03-01T05:22:34;102062.50;;;3.89;100.00
45275;BME280;31019;43.780;25.948;2023-03-01T05:25:01;102070.97;;;3.93;100.00
45275;BME280;31019;43.780;25.948;2023-03-01T05:27:27;102070.03;;;3.94;100.00
45275;BME280;31019;43.780;25.948;2023-03-01T05:29:55;102070.03;;;3.94;100.00
45275;BME280;31019;43.780;25.948;2023-03-01T05:32:23;102063.22;;;3.91;100.00
45275;BME280;31019;43.780;25.948;2023-03-01T05:34:49;102068.50;;;3.91;100.00
45275;BME280;31019;43.780;25.948;2023-03-01T05:37:17;102068.66;;;3.99;100.00
45275;BME280;31019;43.780;25.948;2023-03-01T05:39:44;102065.72;;;3.93;100.00
45275;BME280;31019;43.780;25.948;2023-03-01T05:42:11;102072.50;;;3.95;100.00
45275;BME280;31019;43.780;25.948;2023-03-01T05:44:38;102065.75;;;4.02;100.00
45275;BME280;31019;43.780;25.948;2023-03-01T05:47:05;102072.50;;;4.16;100.00
45275;BME280;31019;43.780;25.948;2023-03-01T05:49:33;102069.66;;;4.08;100.00
45275;BME280;31019;43.780;25.948;2023-03-01T05:52:00;102067.75;;;4.10;100.00
45275;BME280;31019;43.780;25.948;2023-03-01T05:54:27;102057.84;;;4.23;100.00
45275;BME280;31019;43.780;25.948;2023-03-01T05:56:54;102063.63;;;4.17;100.00
45275;BME280;31019;43.780;25.948;2023-03-01T05:59:21;102067.78;;;4.20;100.00
45275;BME280;31019;43.780;25.948;2023-03-01T06:01:48;102068.31;;;4.13;100.00
45275;BME280;31019;43.780;25.948;2023-03-01T06:04:15;102058.28;;;4.28;100.00
45275;BME280;31019;43.780;25.948;2023-03-01T06:06:43;102063.78;;;4.16;100.00
45275;BME280;31019;43.780;25.948;2023-03-01T06:09:10;102066.25;;;4.17;100.00
45275;BME280;31019;43.780;25.948;2023-03-01T06:11:36;102075.88;;;4.28;100.00
45275;BME280;31019;43.780;25.948;2023-03-01T06:14:03;102066.72;;;4.22;100.00
45275;BME280;31019;43.780;25.948;2023-03-01T06:16:31;102072.53;;;4.26;100.00
45275;BME280;31019;43.780;25.948;2023-03-01T06:18:58;102066.59;;;4.24;100.00
45275;BME280;31019;43.780;25.948;2023-03-01T06:21:25;102072.41;;;4.27;100.00
45275;BME280;31019;43.780;25.948;2023-03-01T06:23:53;102073.63;;;4.23;100.00
45275;BME280;31019;43.780;25.948;2023-03-01T06:26:20;102077.50;;;4.19;100.00
45275;BME280;31019;43.780;25.948;2023-03-01T06:28:46;102073.50;;;4.25;100.00
45275;BME280;31019;43.780;25.948;2023-03-01T06:31:13;102067.56;;;4.32;100.00
45275;BME280;31019;43.780;25.948;2023-03-01T06:33:40;102076.13;;;4.25;100.00
45275;BME280;31019;43.780;25.948;2023-03-01T06:36:07;102078.50;;;4.28;100.00
45275;BME280;31019;43.780;25.948;2023-03-01T06:38:35;102073.16;;;4.39;100.00
45275;BME280;31019;43.780;25.948;2023-03-01T06:41:03;102068.53;;;4.31;100.00
45275;BME280;31019;43.780;25.948;2023-03-01T06:43:30;102073.31;;;4.47;100.00
45275;BME280;31019;43.780;25.948;2023-03-01T06:45:57;102080.78;;;4.42;100.00
45275;BME280;31019;43.780;25.948;2023-03-01T06:48:24;102067.44;;;4.65;100.00
45275;BME280;31019;43.780;25.948;2023-03-01T06:50:50;102073.03;;;4.50;100.00
45275;BME280;31019;43.780;25.948;2023-03-01T06:53:17;102078.19;;;4.52;100.00
45275;BME280;31019;43.780;25.948;2023-03-01T06:55:44;102076.69;;;4.59;100.00
45275;BME280;31019;43.780;25.948;2023-03-01T06:58:12;102071.31;;;4.61;100.00
45275;BME280;31019;43.780;25.948;2023-03-01T07:00:38;102069.34;;;4.63;100.00
45275;BME280;31019;43.780;25.948;2023-03-01T07:03:06;102073.09;;;4.60;100.00
45275;BME280;31019;43.780;25.948;2023-03-01T07:05:33;102075.84;;;4.58;100.00
45275;BME280;31019;43.780;25.948;2023-03-01T07:08:00;102078.75;;;5.05;100.00
45275;BME280;31019;43.780;25.948;2023-03-01T07:10:26;102079.69;;;4.85;100.00
45275;BME280;31019;43.780;25.948;2023-03-01T07:12:55;102082.41;;;4.74;100.00
45275;BME280;31019;43.780;25.948;2023-03-01T07:15:23;102079.94;;;4.72;100.00
45275;BME280;31019;43.780;25.948;2023-03-01T07:17:50;102081.66;;;4.52;100.00
45275;BME280;31019;43.780;25.948;2023-03-01T07:20:17;102085.00;;;4.54;100.00
45275;BME280;31019;43.780;25.948;2023-03-01T07:22:44;102083.16;;;4.45;100.00
45275;BME280;31019;43.780;25.948;2023-03-01T07:25:11;102084.72;;;4.57;100.00
45275;BME280;31019;43.780;25.948;2023-03-01T07:27:37;102083.94;;;4.76;100.00
45275;BME280;31019;43.780;25.948;2023-03-01T07:30:05;102087.31;;;4.88;100.00
45275;BME280;31019;43.780;25.948;2023-03-01T07:32:33;102090.03;;;4.77;100.00
45275;BME280;31019;43.780;25.948;2023-03-01T07:35:00;102080.25;;;4.48;100.00
45275;BME280;31019;43.780;25.948;2023-03-01T07:37:27;102078.88;;;4.94;100.00
45275;BME280;31019;43.780;25.948;2023-03-01T07:39:54;102086.50;;;5.07;100.00
45275;BME280;31019;43.780;25.948;2023-03-01T07:42:20;102079.41;;;4.78;100.00
45275;BME280;31019;43.780;25.948;2023-03-01T07:44:47;102090.72;;;4.69;100.00
45275;BME280;31019;43.780;25.948;2023-03-01T07:47:14;102086.75;;;4.85;100.00
45275;BME280;31019;43.780;25.948;2023-03-01T07:49:42;102092.00;;;4.85;100.00
45275;BME280;31019;43.780;25.948;2023-03-01T07:52:10;102089.78;;;4.80;100.00
45275;BME280;31019;43.780;25.948;2023-03-01T07:54:37;102087.78;;;5.32;100.00
45275;BME280;31019;43.780;25.948;2023-03-01T07:57:04;102082.66;;;5.40;100.00
45275;BME280;31019;43.780;25.948;2023-03-01T07:59:30;102090.78;;;5.08;100.00
45275;BME280;31019;43.780;25.948;2023-03-01T08:01:57;102089.53;;;4.93;100.00
45275;BME280;31019;43.780;25.948;2023-03-01T08:04:24;102091.16;;;4.84;100.00
45275;BME280;31019;43.780;25.948;2023-03-01T08:06:53;102080.25;;;4.98;100.00
45275;BME280;31019;43.780;25.948;2023-03-01T08:09:20;102085.94;;;5.03;100.00
45275;BME280;31019;43.780;25.948;2023-03-01T08:11:47;102091.66;;;5.09;100.00
45275;BME280;31019;43.780;25.948;2023-03-01T08:14:14;102096.47;;;5.03;100.00
45275;BME280;31019;43.780;25.948;2023-03-01T08:16:42;102096.75;;;4.91;100.00
45275;BME280;31019;43.780;25.948;2023-03-01T08:19:11;102089.66;;;4.81;100.00
45275;BME280;31019;43.780;25.948;2023-03-01T08:21:38;102095.22;;;5.08;100.00
45275;BME280;31019;43.780;25.948;2023-03-01T08:24:07;102098.13;;;5.04;100.00
45275;BME280;31019;43.780;25.948;2023-03-01T08:26:36;102096.88;;;4.99;100.00
45275;BME280;31019;43.780;25.948;2023-03-01T08:29:03;102087.75;;;4.93;100.00
45275;BME280;31019;43.780;25.948;2023-03-01T08:31:31;102085.41;;;5.00;100.00
45275;BME280;31019;43.780;25.948;2023-03-01T08:34:00;102086.09;;;5.12;100.00
45275;BME280;31019;43.780;25.948;2023-03-01T08:36:28;102083.06;;;5.45;100.00
45275;BME280;31019;43.780;25.948;2023-03-01T08:38:55;102087.53;;;5.45;100.00
45275;BME280;31019;43.780;25.948;2023-03-01T08:41:24;102088.88;;;5.20;100.00
45275;BME280;31019;43.780;25.948;2023-03-01T08:43:50;102084.69;;;5.17;100.00
45275;BME280;31019;43.780;25.948;2023-03-01T08:46:18;102081.78;;;5.20;100.00
45275;BME280;31019;43.780;25.948;2023-03-01T08:48:44;102081.38;;;5.44;100.00
45275;BME280;31019;43.780;25.948;2023-03-01T08:51:12;102077.50;;;5.19;100.00
45275;BME280;31019;43.780;25.948;2023-03-01T08:53:40;102075.84;;;5.38;100.00
45275;BME280;31019;43.780;25.948;2023-03-01T08:56:07;102075.00;;;5.57;100.00
45275;BME280;31019;43.780;25.948;2023-03-01T08:58:36;102068.78;;;5.58;100.00
45275;BME280;31019;43.780;25.948;2023-03-01T09:01:07;102065.19;;;5.39;100.00
45275;BME280;31019;43.780;25.948;2023-03-01T09:03:34;102061.44;;;5.42;100.00
45275;BME280;31019;43.780;25.948;2023-03-01T09:06:01;102065.16;;;5.59;100.00
45275;BME280;31019;43.780;25.948;2023-03-01T09:08:28;102064.06;;;5.51;100.00
45275;BME280;31019;43.780;25.948;2023-03-01T09:10:54;102060.72;;;5.69;100.00
45275;BME280;31019;43.780;25.948;2023-03-01T09:13:21;102055.00;;;5.83;100.00
45275;BME280;31019;43.780;25.948;2023-03-01T09:15:51;102051.69;;;5.62;100.00
45275;BME280;31019;43.780;25.948;2023-03-01T09:18:18;102044.94;;;6.16;100.00
45275;BME280;31019;43.780;25.948;2023-03-01T09:20:44;102046.44;;;5.62;100.00
45275;BME280;31019;43.780;25.948;2023-03-01T09:23:11;102054.72;;;5.86;100.00
45275;BME280;31019;43.780;25.948;2023-03-01T09:25:38;102039.19;;;5.93;100.00
45275;BME280;31019;43.780;25.948;2023-03-01T09:28:05;102045.16;;;5.76;100.00
45275;BME280;31019;43.780;25.948;2023-03-01T09:30:31;102053.81;;;5.48;100.00
45275;BME280;31019;43.780;25.948;2023-03-01T09:32:59;102043.91;;;6.36;100.00
45275;BME280;31019;43.780;25.948;2023-03-01T09:35:26;102055.38;;;6.08;100.00
45275;BME280;31019;43.780;25.948;2023-03-01T09:37:53;102050.81;;;6.65;100.00
45275;BME280;31019;43.780;25.948;2023-03-01T09:40:21;102045.31;;;5.74;100.00
45275;BME280;31019;43.780;25.948;2023-03-01T09:42:55;102050.13;;;6.45;100.00
45275;BME280;31019;43.780;25.948;2023-03-01T09:45:29;102049.06;;;6.28;100.00
45275;BME280;31019;43.780;25.948;2023-03-01T09:48:01;102046.56;;;5.70;100.00
45275;BME280;31019;43.780;25.948;2023-03-01T09:50:34;102045.72;;;5.60;100.00
45275;BME280;31019;43.780;25.948;2023-03-01T09:53:04;102050.41;;;5.85;100.00
45275;BME280;31019;43.780;25.948;2023-03-01T09:55:37;102054.81;;;6.97;100.00
45275;BME280;31019;43.780;25.948;2023-03-01T09:58:27;102040.03;;;6.31;100.00
45275;BME280;31019;43.780;25.948;2023-03-01T10:00:59;102038.63;;;5.80;100.00
45275;BME280;31019;43.780;25.948;2023-03-01T10:03:35;102039.63;;;5.59;100.00
45275;BME280;31019;43.780;25.948;2023-03-01T10:06:08;102045.16;;;5.76;100.00
45275;BME280;31019;43.780;25.948;2023-03-01T10:08:40;102044.88;;;5.98;100.00
45275;BME280;31019;43.780;25.948;2023-03-01T10:11:19;102052.25;;;5.65;100.00
45275;BME280;31019;43.780;25.948;2023-03-01T10:13:50;102047.56;;;5.69;100.00
45275;BME280;31019;43.780;25.948;2023-03-01T10:16:27;102038.41;;;5.63;100.00
45275;BME280;31019;43.780;25.948;2023-03-01T10:19:00;102036.97;;;5.79;100.00
45275;BME280;31019;43.780;25.948;2023-03-01T10:21:28;102028.25;;;5.78;100.00
45275;BME280;31019;43.780;25.948;2023-03-01T10:24:08;102029.88;;;5.89;100.00
45275;BME280;31019;43.780;25.948;2023-03-01T10:26:47;102025.69;;;5.96;100.00
45275;BME280;31019;43.780;25.948;2023-03-01T10:29:15;102016.78;;;6.07;100.00
45275;BME280;31019;43.780;25.948;2023-03-01T10:31:44;102022.25;;;5.86;100.00
45275;BME280;31019;43.780;25.948;2023-03-01T10:34:16;102018.56;;;5.69;100.00
45275;BME280;31019;43.780;25.948;2023-03-01T10:36:47;102008.47;;;5.92;100.00
45275;BME280;31019;43.780;25.948;2023-03-01T10:39:17;102012.50;;;6.06;100.00
45275;BME280;31019;43.780;25.948;2023-03-01T10:41:54;102008.06;;;6.06;100.00
45275;BME280;31019;43.780;25.948;2023-03-01T10:44:39;102014.19;;;5.87;100.00
45275;BME280;31019;43.780;25.948;2023-03-01T10:47:14;102013.06;;;5.90;100.00
45275;BME280;31019;43.780;25.948;2023-03-01T10:49:56;102006.84;;;5.91;100.00
45275;BME280;31019;43.780;25.948;2023-03-01T10:52:26;102007.66;;;5.91;100.00
45275;BME280;31019;43.780;25.948;2023-03-01T10:54:55;102003.03;;;5.66;100.00
45275;BME280;31019;43.780;25.948;2023-03-01T10:57:29;102000.84;;;5.89;100.00
45275;BME280;31019;43.780;25.948;2023-03-01T11:00:02;101996.91;;;5.75;100.00
45275;BME280;31019;43.780;25.948;2023-03-01T11:02:37;101993.44;;;5.65;100.00
45275;BME280;31019;43.780;25.948;2023-03-01T11:05:17;101982.97;;;5.83;100.00
45275;BME280;31019;43.780;25.948;2023-03-01T11:07:49;101981.81;;;6.05;100.00
45275;BME280;31019;43.780;25.948;2023-03-01T11:10:18;101975.59;;;5.96;100.00
45275;BME280;31019;43.780;25.948;2023-03-01T11:12:45;101971.59;;;6.19;100.00
45275;BME280;31019;43.780;25.948;2023-03-01T11:15:21;101978.91;;;6.53;100.00
45275;BME280;31019;43.780;25.948;2023-03-01T11:17:49;101970.72;;;6.01;100.00
45275;BME280;31019;43.780;25.948;2023-03-01T11:20:25;101967.13;;;5.92;100.00
45275;BME280;31019;43.780;25.948;2023-03-01T11:22:54;101956.66;;;5.73;100.00
45275;BME280;31019;43.780;25.948;2023-03-01T11:25:25;101951.38;;;5.73;100.00
45275;BME280;31019;43.780;25.948;2023-03-01T11:27:53;101961.13;;;6.10;100.00
45275;BME280;31019;43.780;25.948;2023-03-01T11:30:23;101956.31;;;5.86;100.00
45275;BME280;31019;43.780;25.948;2023-03-01T11:32:59;101952.06;;;5.75;100.00
45275;BME280;31019;43.780;25.948;2023-03-01T11:35:29;101939.91;;;6.02;100.00
45275;BME280;31019;43.780;25.948;2023-03-01T11:38:05;101945.09;;;6.21;100.00
45275;BME280;31019;43.780;25.948;2023-03-01T11:40:35;101944.41;;;5.82;100.00
45275;BME280;31019;43.780;25.948;2023-03-01T11:43:09;101937.78;;;5.68;100.00
45275;BME280;31019;43.780;25.948;2023-03-01T11:45:50;101936.34;;;5.83;100.00
45275;BME280;31019;43.780;25.948;2023-03-01T11:48:31;101940.06;;;6.00;100.00
45275;BME280;31019;43.780;25.948;2023-03-01T11:51:03;101935.44;;;6.93;100.00
45275;BME280;31019;43.780;25.948;2023-03-01T11:53:50;101929.34;;;6.02;100.00
45275;BME280;31019;43.780;25.948;2023-03-01T11:56:27;101928.13;;;5.86;100.00
45275;BME280;31019;43.780;25.948;2023-03-01T11:59:19;101928.09;;;6.06;100.00
45275;BME280;31019;43.780;25.948;2023-03-01T12:01:59;101924.28;;;5.81;100.00
45275;BME280;31019;43.780;25.948;2023-03-01T12:04:42;101915.09;;;6.22;100.00
45275;BME280;31019;43.780;25.948;2023-03-01T12:07:23;101921.31;;;6.49;100.00
45275;BME280;31019;43.780;25.948;2023-03-01T12:10:14;101921.72;;;6.26;100.00
45275;BME280;31019;43.780;25.948;2023-03-01T12:12:54;101912.44;;;6.22;100.00
45275;BME280;31019;43.780;25.948;2023-03-01T12:15:36;101902.56;;;6.06;100.00
45275;BME280;31019;43.780;25.948;2023-03-01T12:18:29;101898.25;;;6.23;100.00
45275;BME280;31019;43.780;25.948;2023-03-01T12:21:07;101901.47;;;6.62;100.00
45275;BME280;31019;43.780;25.948;2023-03-01T12:24:00;101908.81;;;6.51;100.00
45275;BME280;31019;43.780;25.948;2023-03-01T12:26:34;101897.41;;;6.05;100.00
45275;BME280;31019;43.780;25.948;2023-03-01T12:29:18;101900.47;;;6.28;100.00
45275;BME280;31019;43.780;25.948;2023-03-01T12:32:07;101899.56;;;6.19;100.00
45275;BME280;31019;43.780;25.948;2023-03-01T12:35:04;101894.16;;;6.21;100.00
45275;BME280;31019;43.780;25.948;2023-03-01T12:37:42;101888.88;;;6.21;100.00
45275;BME280;31019;43.780;25.948;2023-03-01T12:40:29;101897.84;;;6.28;100.00
45275;BME280;31019;43.780;25.948;2023-03-01T12:43:10;101900.03;;;6.86;100.00
45275;BME280;31019;43.780;25.948;2023-03-01T12:45:54;101902.81;;;6.31;100.00
45275;BME280;31019;43.780;25.948;2023-03-01T12:48:40;101895.09;;;5.92;100.00
45275;BME280;31019;43.780;25.948;2023-03-01T12:51:13;101898.97;;;5.97;100.00
45275;BME280;31019;43.780;25.948;2023-03-01T12:53:44;101897.41;;;6.05;100.00
45275;BME280;31019;43.780;25.948;2023-03-01T12:56:17;101898.81;;;6.27;100.00